Sabina, Illinois
Current Conditions -  °F | °C
As of 3:56 PM on Monday 26 Jan 2015 (Local Time) from KBMI Reporting Station
Haze Haze  
Wind Chill: 17°   Ceiling: 800
Heat Index: 27°   Visibility: 2.5mi
Dew Point: 25°   Wind: 12mph
Humidity: 92%   Direction: 180°S
Pressure: 29.87"   Gusts: NA
Location:  40.382°N, 88.6331°W
Report Text: KBMI 262156Z 18010KT 2 1/2SM BR OVC008 M03/M04 A2987 RMK AO2 T10271038 CIG 006V010 SLP136
Loading
Personal Weather Stations






























Interactive Weather Map New forecast layout! Learn more

10-Day Weather Forecast

Advertisements
Track Severe Weather on mobile